createdAt,value
2019-03-19T00:02:45.067Z,0.49
2019-03-19T00:08:40.041Z,0.35
2019-03-19T00:14:35.046Z,0.4
2019-03-19T00:20:30.058Z,0.48
2019-03-19T00:26:25.078Z,0.47
2019-03-19T00:32:20.097Z,0.49
2019-03-19T00:38:15.074Z,0.5
2019-03-19T00:44:10.061Z,0.41
2019-03-19T00:50:05.131Z,0.44
2019-03-19T00:56:00.051Z,0.4
2019-03-19T01:01:55.121Z,0.44
2019-03-19T01:07:50.062Z,0.46
2019-03-19T01:13:45.108Z,0.5
2019-03-19T01:19:40.101Z,0.42
2019-03-19T01:25:35.230Z,0.54
2019-03-19T01:31:30.054Z,0.64
2019-03-19T01:37:25.114Z,0.64
2019-03-19T01:43:20.071Z,0.5
2019-03-19T01:49:15.107Z,0.47
2019-03-19T01:55:10.076Z,0.42
2019-03-19T02:01:05.078Z,0.44
2019-03-19T02:07:00.080Z,0.45
2019-03-19T02:12:55.076Z,0.45
2019-03-19T02:18:50.083Z,0.41
2019-03-19T02:24:45.076Z,0.48
2019-03-19T02:30:40.086Z,0.93
2019-03-19T02:36:35.125Z,0.6
2019-03-19T02:42:30.133Z,0.54
2019-03-19T02:48:25.085Z,0.51
2019-03-19T02:54:20.102Z,0.53
2019-03-19T03:00:15.147Z,0.63
2019-03-19T03:06:10.115Z,0.53
2019-03-19T03:12:05.112Z,0.92
2019-03-19T03:18:00.108Z,0.66
2019-03-19T03:23:55.142Z,0.81
2019-03-19T03:29:50.109Z,0.53
2019-03-19T03:35:45.127Z,0.87
2019-03-19T03:41:40.138Z,0.56
2019-03-19T03:47:35.094Z,0.79
2019-03-19T03:53:30.141Z,0.93
2019-03-19T03:59:25.091Z,0.56
2019-03-19T04:05:20.110Z,0.68
2019-03-19T04:11:15.109Z,0.84
2019-03-19T04:17:10.175Z,0.78
2019-03-19T04:23:05.155Z,0.98
2019-03-19T04:29:00.106Z,0.68
2019-03-19T04:34:55.100Z,1.01
2019-03-19T04:40:50.126Z,0.74
2019-03-19T04:46:45.095Z,0.97
2019-03-19T04:52:40.101Z,1.14
2019-03-19T04:58:35.162Z,0.77
2019-03-19T05:04:30.098Z,1.01
2019-03-19T05:10:25.133Z,1.05
2019-03-19T05:16:20.126Z,0.8
2019-03-19T05:22:15.106Z,0.75
2019-03-19T05:28:10.118Z,1.08
2019-03-19T05:34:05.109Z,0.83
2019-03-19T05:40:00.165Z,1.1
2019-03-19T05:45:55.127Z,0.93
2019-03-19T05:51:50.156Z,0.79
2019-03-19T05:57:49.699Z,1.14
2019-03-19T06:03:40.184Z,1.18
2019-03-19T06:09:35.174Z,0.89
2019-03-19T06:15:30.138Z,0.52
2019-03-19T06:21:25.115Z,0.87
2019-03-19T06:27:20.156Z,0.87
2019-03-19T06:33:15.146Z,1
2019-03-19T06:39:10.117Z,1.04
2019-03-19T06:45:05.166Z,1.04
2019-03-19T06:51:00.162Z,1
2019-03-19T06:56:55.186Z,1.38
2019-03-19T07:02:50.179Z,0.8
2019-03-19T07:08:45.170Z,0.98
2019-03-19T07:14:40.131Z,0.91
2019-03-19T07:20:35.124Z,1.16
2019-03-19T07:26:30.136Z,0.8
2019-03-19T07:32:25.161Z,0.85
2019-03-19T07:38:20.169Z,0.92
2019-03-19T07:44:15.177Z,0.94
2019-03-19T07:50:10.148Z,0.93
2019-03-19T07:56:05.152Z,1.23
2019-03-19T08:02:00.158Z,0.77
2019-03-19T08:07:55.156Z,1.06
2019-03-19T08:13:50.178Z,0.98
2019-03-19T08:19:45.161Z,1.66
2019-03-19T08:25:40.145Z,2.11
2019-03-19T08:31:35.158Z,1.76
2019-03-19T08:37:30.177Z,1.18
2019-03-19T08:43:25.188Z,1.27
2019-03-19T08:49:22.265Z,1.65
2019-03-19T08:55:15.149Z,0.99
2019-03-19T09:01:10.167Z,1.01
2019-03-19T09:07:05.153Z,1.25
2019-03-19T09:13:00.195Z,1.53
2019-03-19T09:18:55.151Z,1.31
2019-03-19T09:24:50.183Z,1.08
2019-03-19T09:30:45.183Z,1.78
2019-03-19T09:36:40.181Z,1.29
2019-03-19T09:42:35.184Z,1.52
2019-03-19T09:48:30.168Z,1.47
2019-03-19T09:54:25.162Z,1.63
2019-03-19T10:00:20.172Z,1.77
2019-03-19T10:06:15.173Z,0.52
2019-03-19T10:12:10.178Z,1.47
2019-03-19T10:18:05.176Z,1.36
2019-03-19T10:24:00.200Z,1.16
2019-03-19T10:29:55.173Z,1.27
2019-03-19T10:35:50.194Z,1.36
2019-03-19T10:41:45.216Z,1.39
2019-03-19T10:47:40.159Z,1.77
2019-03-19T10:53:35.168Z,1.29
2019-03-19T10:59:30.180Z,1.61
2019-03-19T11:05:25.183Z,0.94
2019-03-19T11:11:20.173Z,1.72
2019-03-19T11:17:15.210Z,1.92
2019-03-19T11:23:10.193Z,1.39
2019-03-19T11:29:05.197Z,1.47
2019-03-19T11:35:00.358Z,1.48
2019-03-19T11:40:55.194Z,1.05
2019-03-19T11:46:50.180Z,1.14
2019-03-19T11:52:45.222Z,6.25
2019-03-19T11:58:40.175Z,1.68
2019-03-19T12:04:35.237Z,1.68
2019-03-19T12:10:30.165Z,2.58
2019-03-19T12:16:25.195Z,3.62
2019-03-19T12:22:20.209Z,1.96
2019-03-19T12:28:15.173Z,2.02
2019-03-19T12:34:10.184Z,5.59
2019-03-19T12:40:05.219Z,3.83
2019-03-19T12:46:00.191Z,2.79
2019-03-19T12:51:55.231Z,1.76
2019-03-19T12:57:50.203Z,1.58
2019-03-19T13:03:45.185Z,3.17
2019-03-19T13:09:40.202Z,1.56
2019-03-19T13:15:35.209Z,1.84
2019-03-19T13:21:30.193Z,1.81
2019-03-19T13:27:25.235Z,1.17
2019-03-19T13:33:20.237Z,1.85
2019-03-19T13:39:15.198Z,2.12
2019-03-19T13:45:10.207Z,1.71
2019-03-19T13:51:05.205Z,2.03
2019-03-19T13:57:00.204Z,3.43
2019-03-19T14:02:55.222Z,1.73
2019-03-19T14:08:50.212Z,2.77
2019-03-19T14:14:45.216Z,0.9
2019-03-19T14:20:40.228Z,1.04
2019-03-19T14:26:35.240Z,1.31
2019-03-19T14:32:30.263Z,2.21
2019-03-19T14:38:25.225Z,1.27
2019-03-19T14:44:21.891Z,1.29
2019-03-19T14:50:15.224Z,1.32
2019-03-19T14:56:10.312Z,1.17
2019-03-19T15:02:05.230Z,1.41
2019-03-19T15:08:00.250Z,2.68
2019-03-19T15:13:55.370Z,2.21
2019-03-19T15:19:50.215Z,2.68
2019-03-19T15:25:45.234Z,3.38
2019-03-19T15:31:40.207Z,2.62
2019-03-19T15:37:36.693Z,3.42
2019-03-19T15:43:30.219Z,2.38
2019-03-19T15:49:25.227Z,2.24
2019-03-19T15:55:20.227Z,1.7
2019-03-19T16:01:17.019Z,1.61
2019-03-19T16:07:10.243Z,1.57
2019-03-19T16:13:05.250Z,1.26
2019-03-19T16:19:00.226Z,3.69
2019-03-19T16:24:55.240Z,2.47
2019-03-19T16:30:50.258Z,2.25
2019-03-19T16:36:45.238Z,5.75
2019-03-19T16:42:40.230Z,8.73
2019-03-19T16:48:35.257Z,5.11
2019-03-19T16:54:30.252Z,2.58
2019-03-19T17:00:25.222Z,2.27
2019-03-19T17:06:20.242Z,6.47
2019-03-19T17:12:15.320Z,3.6
2019-03-19T17:18:10.245Z,2.17
2019-03-19T17:24:05.245Z,2.03
2019-03-19T17:30:00.360Z,2.36
2019-03-19T17:35:55.260Z,1.9
2019-03-19T17:41:50.248Z,2.78
2019-03-19T17:47:45.257Z,2.18
2019-03-19T17:53:40.269Z,2.33
2019-03-19T17:59:35.235Z,2.28
2019-03-19T18:05:30.250Z,5.95
2019-03-19T18:11:25.260Z,4.03
2019-03-19T18:17:20.266Z,2.48
2019-03-19T18:23:15.283Z,5.28
2019-03-19T18:29:10.619Z,4.26
2019-03-19T18:35:05.266Z,4.67
2019-03-19T18:41:00.283Z,12.79
2019-03-19T18:46:55.292Z,21.84
2019-03-19T18:52:50.300Z,5.68
2019-03-19T18:58:45.264Z,3.65
2019-03-19T19:04:40.268Z,3.54
2019-03-19T19:10:35.243Z,1.36
2019-03-19T19:16:30.251Z,2.24
2019-03-19T19:22:25.336Z,1.96
2019-03-19T19:28:20.284Z,1.28
2019-03-19T19:34:15.321Z,1.01
2019-03-19T19:40:10.285Z,1.13
2019-03-19T19:46:05.285Z,1.54
2019-03-19T19:52:00.278Z,2.14
2019-03-19T19:57:55.258Z,1.52
2019-03-19T20:03:50.262Z,1.15
2019-03-19T20:09:45.329Z,1.1
2019-03-19T20:15:40.308Z,1.52
2019-03-19T20:21:35.327Z,1.17
2019-03-19T20:27:30.300Z,2.46
2019-03-19T20:33:25.347Z,1.35
2019-03-19T20:39:21.353Z,1.22
2019-03-19T20:45:15.248Z,1.06
2019-03-19T20:51:10.321Z,1.65
2019-03-19T20:57:05.264Z,1.17
2019-03-19T21:03:00.283Z,1.2
2019-03-19T21:08:55.304Z,2.33
2019-03-19T21:14:50.284Z,1.59
2019-03-19T21:20:45.277Z,1.39
2019-03-19T21:26:40.274Z,0.9
2019-03-19T21:32:35.310Z,1.3
2019-03-19T21:38:30.260Z,1.53
2019-03-19T21:44:25.275Z,1.03
2019-03-19T21:50:20.266Z,1.53
2019-03-19T21:56:15.272Z,2.03
2019-03-19T22:02:10.278Z,1.14
2019-03-19T22:08:05.346Z,1.08
2019-03-19T22:14:00.273Z,1.34
2019-03-19T22:19:55.295Z,0.77
2019-03-19T22:25:50.284Z,1.22
2019-03-19T22:31:45.308Z,1.58
2019-03-19T22:37:40.343Z,1.26
2019-03-19T22:43:35.314Z,1.38
2019-03-19T22:49:30.287Z,1.37
2019-03-19T22:55:29.136Z,1.41
2019-03-19T23:01:20.289Z,0.73
2019-03-19T23:07:15.307Z,1.19
2019-03-19T23:13:11.865Z,0.87
2019-03-19T23:19:05.333Z,1.04
2019-03-19T23:25:00.343Z,1.03
2019-03-19T23:30:55.318Z,1.34
2019-03-19T23:36:50.307Z,1.15
2019-03-19T23:42:45.295Z,1.32
2019-03-19T23:48:40.390Z,0.9
2019-03-19T23:54:35.301Z,1.99
